Hlavní strana
METAR-TAF:

METAR-TAF

Letiště :

Mezinárodní letiště Male

Male, Maledivy

zeměpisná šířka: 04-12N, zeměpisná délka: 073-32E, výška: 2 m

Aktuální stav počasí

Zpráva byla vytvořena před 1 hodinou a 24 minutami, v 22:00 UTC
Jihojihozápadní vítr 6 kt
Teplota 27°C
Vlhkost vzduchu 84%
Tlak 1012 hPa
Viditelnost 10 km a více
Skoro jasno ve výšce 1800 ft

METAR: VRMM 152200Z 21006KT 9999 FEW018 27/24 Q1012 NOSIG

Čas: 04:24 (23:24 UTC)

Předpověď počasí

Zpráva byla vytvořena před 6 hodinami a 24 minutami, v 17:00 UTC
Předpověď platná od 15 v 18 UTC do 16 v 24 UTC
Západojihozápadní vítr 5 kt
Viditelnost 10 km a více
Skoro jasno ve výšce 1800 ft
Dočasný
od 15 v 18 UTC do 15 v 24 UTC
Skoro jasno ve výšce 2000 ft, Cumulonimbus.

TAF: VRMM 151700Z 1518/1624 25005KT 9999 FEW018 TEMPO 1518/1524 FEW020CB

Stav a předpovědi počasí z více než 4 000 letišť (zprávy METAR a TAF).

Červené a žluté tečky na mapě představují dostupné meteorologické stanice.

Když kurzor umístíte na tečku, zobrazí se název stanice.

Pak kliknutím zobrazíte stav a předpověď počasí.

Chcete-li změnit mapu, kliknutím na zelené tlačítko se znaménkem +mapu přiblížíte, kliknutím na zelené tlačítko se znaménkem – mapu oddálíte a kliknutím na zelené šipky přejdete na sousední mapy.


METAR-TAF: